createdAt,value
2023-02-04T00:00:21.056Z,4.35
2023-02-04T00:02:48.684Z,3.60
2023-02-04T00:05:18.860Z,4.85
2023-02-04T00:07:46.375Z,4.50
2023-02-04T00:10:14.074Z,4.38
2023-02-04T00:12:41.553Z,4.32
2023-02-04T00:15:10.644Z,4.10
2023-02-04T00:17:39.251Z,4.07
2023-02-04T00:20:07.637Z,5.43
2023-02-04T00:22:36.495Z,4.50
2023-02-04T00:25:03.992Z,4.47
2023-02-04T00:27:31.442Z,4.57
2023-02-04T00:29:59.154Z,4.15
2023-02-04T00:32:26.800Z,4.32
2023-02-04T00:34:54.370Z,4.35
2023-02-04T00:37:21.894Z,3.42
2023-02-04T00:39:50.749Z,3.85
2023-02-04T00:42:18.285Z,4.72
2023-02-04T00:44:45.924Z,4.40
2023-02-04T00:47:15.561Z,4.40
2023-02-04T00:49:43.083Z,3.63
2023-02-04T00:52:10.644Z,4.57
2023-02-04T00:54:38.188Z,3.97
2023-02-04T00:57:06.965Z,3.65
2023-02-04T00:59:34.414Z,4.32
2023-02-04T01:02:01.885Z,3.83
2023-02-04T01:04:29.534Z,4.43
2023-02-04T01:06:57.105Z,4.38
2023-02-04T01:09:24.912Z,4.78
2023-02-04T01:11:52.393Z,3.70
2023-02-04T01:14:21.360Z,4.57
2023-02-04T01:16:49.019Z,3.78
2023-02-04T01:19:16.547Z,4.35
2023-02-04T01:21:44.017Z,4.13
2023-02-04T01:24:11.486Z,4.53
2023-02-04T01:26:38.919Z,3.40
2023-02-04T01:29:06.462Z,4.18
2023-02-04T01:31:35.268Z,4.43
2023-02-04T01:34:03.369Z,4.25
2023-02-04T01:36:30.831Z,4.20
2023-02-04T01:39:00.837Z,4.65
2023-02-04T01:41:28.835Z,4.97
2023-02-04T01:43:56.514Z,3.97
2023-02-04T01:46:24.320Z,4.28
2023-02-04T01:48:53.755Z,4.05
2023-02-04T01:51:28.397Z,3.80
2023-02-04T01:53:56.406Z,4.28
2023-02-04T01:56:26.385Z,4.10
2023-02-04T01:58:56.049Z,4.57
2023-02-04T02:01:38.349Z,4.07
2023-02-04T02:04:07.262Z,4.75
2023-02-04T02:06:35.661Z,3.80
2023-02-04T02:09:03.638Z,4.18
2023-02-04T02:11:31.534Z,4.32
2023-02-04T02:13:59.382Z,4.30
2023-02-04T02:16:26.951Z,4.90
2023-02-04T02:18:54.587Z,4.00
2023-02-04T02:21:32.190Z,4.68
2023-02-04T02:24:01.860Z,3.65
2023-02-04T02:26:29.580Z,4.18
2023-02-04T02:28:57.120Z,3.33
2023-02-04T02:31:24.789Z,4.57
2023-02-04T02:33:52.369Z,4.32
2023-02-04T02:36:19.883Z,5.15
2023-02-04T02:42:33.967Z,4.22
2023-02-04T02:45:04.255Z,4.43
2023-02-04T02:47:31.771Z,4.60
2023-02-04T02:49:59.358Z,5.40
2023-02-04T02:52:26.864Z,5.50
2023-02-04T02:54:54.608Z,5.28
2023-02-04T02:57:24.392Z,5.00
2023-02-04T02:59:53.206Z,4.30
2023-02-04T03:02:24.295Z,4.03
2023-02-04T03:04:56.453Z,4.65
2023-02-04T03:07:25.071Z,4.60
2023-02-04T03:09:53.533Z,4.30
2023-02-04T03:12:21.343Z,4.40
2023-02-04T03:14:48.957Z,4.13
2023-02-04T03:17:17.982Z,4.28
2023-02-04T03:19:45.570Z,4.25
2023-02-04T03:22:13.239Z,4.45
2023-02-04T03:24:40.982Z,4.32
2023-02-04T03:27:08.508Z,3.88
2023-02-04T03:29:42.031Z,4.50
2023-02-04T03:32:09.503Z,4.20
2023-02-04T03:34:38.644Z,4.95
2023-02-04T03:37:06.388Z,4.25
2023-02-04T03:39:33.842Z,4.45
2023-02-04T03:42:01.373Z,5.80
2023-02-04T03:44:28.844Z,5.10
2023-02-04T03:46:56.595Z,5.07
2023-02-04T03:49:24.365Z,4.13
2023-02-04T03:51:53.166Z,3.58
2023-02-04T03:54:20.649Z,3.92
2023-02-04T03:56:48.096Z,4.68
2023-02-04T03:59:15.612Z,4.25
2023-02-04T04:01:43.091Z,4.65
2023-02-04T04:04:10.616Z,4.25
2023-02-04T04:06:38.159Z,4.20
2023-02-04T04:09:07.098Z,4.20
2023-02-04T04:11:34.568Z,4.60
2023-02-04T04:14:02.062Z,4.53
2023-02-04T04:16:29.634Z,3.63
2023-02-04T04:18:57.373Z,4.28
2023-02-04T04:21:24.900Z,4.70
2023-02-04T04:23:52.346Z,3.75
2023-02-04T04:26:21.179Z,4.30
2023-02-04T04:28:48.771Z,4.38
2023-02-04T04:31:16.337Z,4.05
2023-02-04T04:33:43.849Z,4.57
2023-02-04T04:36:11.433Z,4.70
2023-02-04T04:38:39.077Z,3.65
2023-02-04T04:41:06.541Z,4.63
2023-02-04T04:43:35.342Z,3.78
2023-02-04T04:46:02.787Z,4.30
2023-02-04T04:48:30.280Z,4.40
2023-02-04T04:50:58.458Z,4.30
2023-02-04T04:53:26.040Z,3.97
2023-02-04T04:55:53.524Z,4.72
2023-02-04T04:58:20.968Z,5.18
2023-02-04T05:00:49.837Z,4.93
2023-02-04T05:03:17.484Z,4.40
2023-02-04T05:05:44.934Z,4.13
2023-02-04T05:08:16.748Z,4.25
2023-02-04T05:10:44.695Z,3.88
2023-02-04T05:13:12.290Z,4.60
2023-02-04T05:15:40.117Z,4.05
2023-02-04T05:18:09.050Z,3.60
2023-02-04T05:20:36.543Z,5.50
2023-02-04T05:23:05.883Z,3.80
2023-02-04T05:25:33.823Z,4.47
2023-02-04T05:28:01.312Z,4.10
2023-02-04T05:30:28.774Z,4.25
2023-02-04T05:32:56.352Z,4.35
2023-02-04T05:35:25.287Z,5.57
2023-02-04T05:37:52.750Z,4.70
2023-02-04T05:40:20.266Z,3.72
2023-02-04T05:42:47.823Z,3.88
2023-02-04T05:45:18.850Z,4.53
2023-02-04T05:47:46.477Z,3.97
2023-02-04T05:50:14.189Z,5.10
2023-02-04T05:52:42.983Z,4.60
2023-02-04T05:55:13.381Z,4.55
2023-02-04T05:57:40.916Z,4.70
2023-02-04T06:00:10.422Z,4.88
2023-02-04T06:02:37.884Z,4.00
2023-02-04T06:05:06.179Z,5.15
2023-02-04T06:07:33.658Z,3.85
2023-02-04T06:10:02.502Z,5.10
2023-02-04T06:12:30.051Z,4.55
2023-02-04T06:14:57.522Z,4.35
2023-02-04T06:17:24.964Z,4.20
2023-02-04T06:19:52.443Z,3.92
2023-02-04T06:22:19.891Z,3.92
2023-02-04T06:24:47.597Z,3.90
2023-02-04T06:27:23.076Z,4.97
2023-02-04T06:29:51.014Z,5.18
2023-02-04T06:32:18.608Z,4.60
2023-02-04T06:34:46.590Z,4.30
2023-02-04T06:37:15.774Z,4.72
2023-02-04T06:39:43.533Z,3.90
2023-02-04T06:42:11.033Z,4.47
2023-02-04T06:44:39.835Z,5.57
2023-02-04T06:47:07.298Z,4.75
2023-02-04T06:49:34.810Z,4.60
2023-02-04T06:52:02.326Z,4.20
2023-02-04T06:54:29.828Z,5.50
2023-02-04T06:57:03.592Z,4.22
2023-02-04T06:59:33.009Z,5.10
2023-02-04T07:02:01.829Z,4.18
2023-02-04T07:04:29.817Z,4.35
2023-02-04T07:06:57.456Z,4.28
2023-02-04T07:09:24.970Z,4.85
2023-02-04T07:11:52.423Z,4.78
2023-02-04T07:14:19.884Z,4.90
2023-02-04T07:16:47.578Z,4.78
2023-02-04T07:19:16.435Z,3.88
2023-02-04T07:21:43.884Z,3.92
2023-02-04T07:24:11.324Z,4.93
2023-02-04T07:26:38.785Z,4.40
2023-02-04T07:29:08.561Z,4.35
2023-02-04T07:31:42.049Z,4.03
2023-02-04T07:34:09.812Z,5.68
2023-02-04T07:36:38.674Z,3.35
2023-02-04T07:39:06.257Z,4.22
2023-02-04T07:41:34.433Z,5.05
2023-02-04T07:44:01.961Z,4.45
2023-02-04T07:46:29.805Z,4.90
2023-02-04T07:48:57.303Z,5.20
2023-02-04T07:51:26.045Z,4.85
2023-02-04T07:53:57.002Z,4.93
2023-02-04T07:56:24.774Z,5.50
2023-02-04T07:58:52.243Z,4.93
2023-02-04T08:01:19.713Z,5.10
2023-02-04T08:03:47.171Z,4.40
2023-02-04T08:06:14.673Z,4.88
2023-02-04T08:08:42.119Z,5.72
2023-02-04T08:11:11.069Z,4.50
2023-02-04T08:13:38.518Z,4.35
2023-02-04T08:16:06.619Z,5.45
2023-02-04T08:18:34.118Z,5.40
2023-02-04T08:21:02.054Z,4.97
2023-02-04T08:23:29.530Z,5.50
2023-02-04T08:25:57.436Z,4.57
2023-02-04T08:28:26.458Z,4.63
2023-02-04T08:30:54.007Z,5.30
2023-02-04T08:33:22.168Z,4.80
2023-02-04T08:35:50.313Z,5.30
2023-02-04T08:38:17.774Z,4.30
2023-02-04T08:40:45.369Z,5.00
2023-02-04T08:43:12.862Z,4.93
2023-02-04T08:45:42.163Z,4.82
2023-02-04T08:48:09.634Z,4.85
2023-02-04T08:50:39.023Z,4.93
2023-02-04T08:53:06.651Z,5.65
2023-02-04T08:55:34.184Z,5.47
2023-02-04T08:58:03.149Z,5.45
2023-02-04T09:00:31.526Z,5.25
2023-02-04T09:03:00.594Z,5.40
2023-02-04T09:05:28.072Z,4.65
2023-02-04T09:07:55.625Z,6.40
2023-02-04T09:10:23.327Z,4.15
2023-02-04T09:12:55.800Z,4.78
2023-02-04T09:15:24.266Z,4.85
2023-02-04T09:17:53.732Z,5.68
2023-02-04T09:20:22.673Z,4.85
2023-02-04T09:22:50.255Z,4.78
2023-02-04T09:25:17.907Z,4.90
2023-02-04T09:27:45.377Z,4.45
2023-02-04T09:30:13.983Z,4.22
2023-02-04T09:32:41.452Z,5.60
2023-02-04T09:35:09.091Z,5.40
2023-02-04T09:37:37.903Z,5.95
2023-02-04T09:40:06.198Z,4.10
2023-02-04T09:42:34.295Z,5.80
2023-02-04T09:45:03.207Z,5.03
2023-02-04T09:47:31.195Z,5.68
2023-02-04T09:49:58.964Z,4.97
2023-02-04T09:52:29.041Z,5.88
2023-02-04T09:54:57.855Z,5.25
2023-02-04T09:57:25.326Z,4.28
2023-02-04T09:59:54.351Z,5.63
2023-02-04T10:02:25.299Z,5.68
2023-02-04T10:04:54.320Z,4.80
2023-02-04T10:07:25.196Z,5.18
2023-02-04T10:09:53.485Z,5.13
2023-02-04T10:12:22.953Z,5.20
2023-02-04T10:14:50.832Z,5.40
2023-02-04T10:17:22.839Z,5.63
2023-02-04T10:19:50.945Z,5.63
2023-02-04T10:22:20.347Z,4.28
2023-02-04T10:24:49.408Z,6.30
2023-02-04T10:27:17.234Z,5.70
2023-02-04T10:29:59.271Z,6.35
2023-02-04T10:32:28.436Z,5.97
2023-02-04T10:35:00.794Z,5.00
2023-02-04T10:37:29.566Z,4.78
2023-02-04T10:39:57.266Z,5.18
2023-02-04T10:42:27.271Z,6.82
2023-02-04T10:44:58.512Z,6.07
2023-02-04T10:47:28.906Z,6.03
2023-02-04T10:49:58.699Z,5.50
2023-02-04T10:52:34.993Z,5.57
2023-02-04T10:55:04.332Z,6.25
2023-02-04T10:57:33.212Z,6.18
2023-02-04T11:00:05.157Z,6.18
2023-02-04T11:02:37.955Z,6.82
2023-02-04T11:05:12.027Z,6.40
2023-02-04T11:07:39.579Z,5.47
2023-02-04T11:10:07.595Z,7.72
2023-02-04T11:12:41.284Z,6.22
2023-02-04T11:15:53.688Z,8.43
2023-02-04T11:18:31.114Z,7.25
2023-02-04T11:21:00.207Z,6.38
2023-02-04T11:23:37.570Z,5.47
2023-02-04T11:26:11.843Z,6.80
2023-02-04T11:28:51.480Z,7.93
2023-02-04T11:31:39.949Z,7.00
2023-02-04T11:34:26.523Z,7.50
2023-02-04T11:37:16.867Z,6.60
2023-02-04T11:39:46.253Z,6.15
2023-02-04T11:42:22.549Z,8.57
2023-02-04T11:44:52.315Z,8.32
2023-02-04T11:47:20.051Z,6.38
2023-02-04T11:49:55.628Z,7.88
2023-02-04T11:52:23.322Z,7.20
2023-02-04T11:54:54.912Z,7.85
2023-02-04T11:57:22.382Z,7.90
2023-02-04T11:59:49.996Z,8.27
2023-02-04T12:02:20.078Z,8.52
2023-02-04T12:05:09.224Z,8.77
2023-02-04T12:07:37.307Z,8.05
2023-02-04T12:10:13.346Z,8.07
2023-02-04T12:12:45.596Z,8.13
2023-02-04T12:15:18.008Z,8.93
2023-02-04T12:17:46.605Z,8.70
2023-02-04T12:20:15.598Z,9.63
2023-02-04T12:22:43.043Z,8.85
2023-02-04T12:25:16.671Z,8.15
2023-02-04T12:27:44.161Z,8.38
2023-02-04T12:30:13.553Z,9.60
2023-02-04T12:32:41.083Z,6.97
2023-02-04T12:35:08.928Z,8.05
2023-02-04T12:37:37.723Z,7.70
2023-02-04T12:40:05.928Z,7.95
2023-02-04T12:42:33.420Z,7.60
2023-02-04T12:45:00.932Z,9.57
2023-02-04T12:47:28.420Z,7.47
2023-02-04T12:49:55.865Z,7.70
2023-02-04T12:52:23.794Z,8.27
2023-02-04T12:54:52.587Z,8.57
2023-02-04T12:57:20.277Z,7.38
2023-02-04T12:59:48.709Z,8.52
2023-02-04T13:02:16.255Z,9.18
2023-02-04T13:04:43.878Z,8.80
2023-02-04T13:07:11.481Z,7.78
2023-02-04T13:09:41.254Z,7.60
2023-02-04T13:12:13.453Z,8.57
2023-02-04T13:14:40.963Z,9.18
2023-02-04T13:17:08.791Z,8.27
2023-02-04T13:19:36.681Z,8.60
2023-02-04T13:22:05.015Z,7.47
2023-02-04T13:24:32.498Z,7.97
2023-02-04T13:26:59.970Z,8.02
2023-02-04T13:29:28.821Z,8.00
2023-02-04T13:31:56.402Z,8.32
2023-02-04T13:34:23.966Z,7.68
2023-02-04T13:36:51.451Z,7.72
2023-02-04T13:39:18.930Z,8.55
2023-02-04T13:41:46.994Z,8.10
2023-02-04T13:44:14.596Z,7.82
2023-02-04T13:46:43.404Z,8.13
2023-02-04T13:49:10.935Z,8.30
2023-02-04T13:51:38.434Z,6.75
2023-02-04T13:54:05.966Z,7.65
2023-02-04T13:56:33.770Z,7.07
2023-02-04T13:59:02.874Z,7.65
2023-02-04T14:01:31.221Z,7.22
2023-02-04T14:04:00.148Z,6.80
2023-02-04T14:06:33.210Z,12.20
2023-02-04T14:09:00.920Z,6.63
2023-02-04T14:11:28.451Z,10.05
2023-02-04T14:13:56.201Z,7.95
2023-02-04T14:16:23.997Z,5.97
2023-02-04T14:18:51.688Z,7.18
2023-02-04T14:21:20.562Z,7.95
2023-02-04T14:23:48.056Z,7.43
2023-02-04T14:26:15.548Z,6.75
2023-02-04T14:28:43.050Z,6.72
2023-02-04T14:31:10.637Z,6.65
2023-02-04T14:33:38.179Z,7.18
2023-02-04T14:36:06.121Z,7.35
2023-02-04T14:38:35.133Z,8.82
2023-02-04T14:41:02.633Z,7.70
2023-02-04T14:43:30.215Z,7.10
2023-02-04T14:45:57.724Z,7.57
2023-02-04T14:48:28.101Z,7.60
2023-02-04T14:50:55.569Z,7.80
2023-02-04T14:53:23.023Z,8.90
2023-02-04T14:55:52.024Z,7.57
2023-02-04T14:58:19.481Z,7.70
2023-02-04T15:00:47.262Z,8.27
2023-02-04T15:03:14.726Z,8.50
2023-02-04T15:05:42.198Z,7.85
2023-02-04T15:08:10.076Z,8.27
2023-02-04T15:10:37.640Z,7.38
2023-02-04T15:13:06.562Z,7.95
2023-02-04T15:15:34.085Z,8.77
2023-02-04T15:18:01.572Z,8.90
2023-02-04T15:20:29.372Z,9.10
2023-02-04T15:22:57.472Z,9.57
2023-02-04T15:25:26.020Z,8.52
2023-02-04T15:27:53.606Z,9.10
2023-02-04T15:30:22.680Z,8.20
2023-02-04T15:32:50.249Z,39.80
2023-02-04T15:35:17.734Z,11.35
2023-02-04T15:37:45.179Z,8.45
2023-02-04T15:40:13.082Z,20.25
2023-02-04T15:42:40.829Z,7.78
2023-02-04T15:45:08.794Z,8.68
2023-02-04T15:47:37.600Z,8.75
2023-02-04T15:50:08.653Z,8.73
2023-02-04T15:52:36.110Z,34.03
2023-02-04T15:55:04.422Z,10.38
2023-02-04T15:57:32.793Z,8.25
2023-02-04T16:00:00.345Z,8.20
2023-02-04T16:02:28.227Z,8.90
2023-02-04T16:04:57.047Z,10.02
2023-02-04T16:07:24.493Z,9.30
2023-02-04T16:09:51.967Z,9.02
2023-02-04T16:12:19.453Z,8.73
2023-02-04T16:14:46.900Z,12.02
2023-02-04T16:17:14.385Z,9.00
2023-02-04T16:19:41.878Z,9.43
2023-02-04T16:22:11.120Z,8.88
2023-02-04T16:24:39.116Z,8.07
2023-02-04T16:27:06.594Z,8.52
2023-02-04T16:29:34.066Z,9.65
2023-02-04T16:32:01.635Z,9.15
2023-02-04T16:34:29.298Z,9.13
2023-02-04T16:36:56.812Z,9.88
2023-02-04T16:39:25.655Z,10.02
2023-02-04T16:41:53.132Z,9.70
2023-02-04T16:44:20.653Z,10.57
2023-02-04T16:46:48.986Z,12.10
2023-02-04T16:49:16.562Z,14.60
2023-02-04T16:51:44.153Z,14.32
2023-02-04T16:54:11.631Z,16.30
2023-02-04T16:56:40.422Z,19.30
2023-02-04T16:59:07.877Z,22.35
2023-02-04T17:01:35.376Z,19.00
2023-02-04T17:04:03.106Z,18.92
2023-02-04T17:06:32.455Z,14.75
2023-02-04T17:09:00.272Z,14.30
2023-02-04T17:11:31.343Z,13.60
2023-02-04T17:14:01.796Z,12.25
2023-02-04T17:16:30.385Z,13.50
2023-02-04T17:18:58.571Z,11.95
2023-02-04T17:21:27.998Z,13.35
2023-02-04T17:23:56.186Z,14.50
2023-02-04T17:26:24.378Z,13.13
2023-02-04T17:28:51.947Z,13.00
2023-02-04T17:31:20.791Z,12.40
2023-02-04T17:33:49.727Z,13.10
2023-02-04T17:36:17.195Z,12.07
2023-02-04T17:38:44.817Z,10.50
2023-02-04T17:41:12.294Z,11.25
2023-02-04T17:43:39.837Z,11.15
2023-02-04T17:46:07.296Z,12.00
2023-02-04T17:48:36.155Z,11.57
2023-02-04T17:51:03.649Z,10.00
2023-02-04T17:53:31.109Z,10.25
2023-02-04T17:55:58.569Z,11.15
2023-02-04T17:58:28.930Z,10.50
2023-02-04T18:00:57.645Z,10.32
2023-02-04T18:03:27.956Z,10.95
2023-02-04T18:05:58.242Z,11.30
2023-02-04T18:08:31.766Z,11.10
2023-02-04T18:10:59.378Z,12.52
2023-02-04T18:13:34.061Z,12.00
2023-02-04T18:16:03.707Z,14.98
2023-02-04T18:18:33.516Z,13.40
2023-02-04T18:21:13.662Z,13.93
2023-02-04T18:23:41.250Z,11.75
2023-02-04T18:26:13.635Z,11.70
2023-02-04T18:28:45.432Z,12.05
2023-02-04T18:31:25.883Z,11.93
2023-02-04T18:33:53.381Z,13.20
2023-02-04T18:36:23.009Z,14.13
2023-02-04T18:38:51.318Z,13.27
2023-02-04T18:41:38.464Z,12.18
2023-02-04T18:44:21.528Z,11.38
2023-02-04T18:46:49.192Z,11.13
2023-02-04T18:49:25.414Z,11.95
2023-02-04T18:51:54.526Z,12.20
2023-02-04T18:54:29.114Z,11.73
2023-02-04T18:57:17.276Z,11.10
2023-02-04T18:59:44.817Z,11.65
2023-02-04T19:02:34.967Z,11.07
2023-02-04T19:05:13.635Z,10.13
2023-02-04T19:07:43.348Z,11.32
2023-02-04T19:10:27.744Z,11.30
2023-02-04T19:12:59.960Z,10.63
2023-02-04T19:15:37.155Z,10.77
2023-02-04T19:18:17.020Z,10.75
2023-02-04T19:20:44.504Z,10.70
2023-02-04T19:23:18.963Z,10.30
2023-02-04T19:25:47.808Z,10.20
2023-02-04T19:28:26.014Z,10.20
2023-02-04T19:30:59.304Z,9.48
2023-02-04T19:33:29.093Z,9.82
2023-02-04T19:35:56.554Z,9.50
2023-02-04T19:38:37.631Z,8.32
2023-02-04T19:41:34.391Z,7.97
2023-02-04T19:44:27.973Z,10.27
2023-02-04T19:46:56.928Z,8.60
2023-02-04T19:49:26.180Z,8.65
2023-02-04T19:51:55.060Z,8.13
2023-02-04T19:54:25.513Z,7.50
2023-02-04T19:56:55.567Z,7.82
2023-02-04T19:59:26.668Z,8.70
2023-02-04T20:02:01.386Z,7.43
2023-02-04T20:04:36.075Z,8.02
2023-02-04T20:07:06.720Z,7.75
2023-02-04T20:09:35.782Z,7.68
2023-02-04T20:12:09.937Z,7.70
2023-02-04T20:14:49.264Z,7.70
2023-02-04T20:17:37.470Z,8.07
2023-02-04T20:20:25.938Z,7.85
2023-02-04T20:22:55.525Z,7.85
2023-02-04T20:25:38.682Z,7.75
2023-02-04T20:28:40.069Z,8.30
2023-02-04T20:31:39.039Z,8.93
2023-02-04T20:34:18.223Z,8.25
2023-02-04T20:36:46.769Z,9.15
2023-02-04T20:39:27.546Z,9.88
2023-02-04T20:42:15.710Z,9.68
2023-02-04T20:44:43.162Z,9.10
2023-02-04T20:47:17.112Z,9.30
2023-02-04T20:49:47.475Z,10.52
2023-02-04T20:52:48.508Z,11.38
2023-02-04T20:55:25.907Z,10.57
2023-02-04T20:58:02.326Z,11.20
2023-02-04T21:00:34.234Z,11.30
2023-02-04T21:03:17.438Z,11.13
2023-02-04T21:05:45.011Z,9.57
2023-02-04T21:08:25.442Z,9.23
2023-02-04T21:10:52.892Z,8.70
2023-02-04T21:13:21.707Z,9.25
2023-02-04T21:15:49.577Z,8.75
2023-02-04T21:18:17.478Z,9.93
2023-02-04T21:20:45.093Z,8.25
2023-02-04T21:23:12.616Z,7.95
2023-02-04T21:25:40.132Z,8.40
2023-02-04T21:28:07.635Z,9.02
2023-02-04T21:30:36.571Z,8.38
2023-02-04T21:33:04.270Z,9.25
2023-02-04T21:35:31.997Z,8.68
2023-02-04T21:37:59.949Z,10.73
2023-02-04T21:40:27.770Z,9.68
2023-02-04T21:42:55.883Z,10.93
2023-02-04T21:45:25.078Z,10.73
2023-02-04T21:47:53.899Z,9.75
2023-02-04T21:50:22.897Z,9.35
2023-02-04T21:52:50.824Z,10.32
2023-02-04T21:55:21.341Z,11.45
2023-02-04T21:57:50.012Z,12.23
2023-02-04T22:00:18.592Z,12.95
2023-02-04T22:02:46.474Z,13.55
2023-02-04T22:05:15.324Z,14.20
2023-02-04T22:07:42.837Z,13.50
2023-02-04T22:10:13.033Z,13.07
2023-02-04T22:12:40.547Z,12.98
2023-02-04T22:15:18.230Z,12.90
2023-02-04T22:17:46.199Z,14.95
2023-02-04T22:20:16.151Z,12.95
2023-02-04T22:22:44.651Z,12.32
2023-02-04T22:25:13.659Z,12.23
2023-02-04T22:27:41.405Z,12.05
2023-02-04T22:30:12.032Z,10.95
2023-02-04T22:32:39.824Z,12.82
2023-02-04T22:35:07.872Z,18.90
2023-02-04T22:37:36.699Z,28.85
2023-02-04T22:40:04.841Z,23.23
2023-02-04T22:42:32.540Z,23.45
2023-02-04T22:45:00.098Z,18.38
2023-02-04T22:47:27.539Z,13.98
2023-02-04T22:49:55.009Z,13.85
2023-02-04T22:52:24.303Z,11.50
2023-02-04T22:54:53.421Z,11.73
2023-02-04T22:57:20.926Z,11.90
2023-02-04T22:59:48.439Z,12.75
2023-02-04T23:02:15.918Z,13.43
2023-02-04T23:04:44.140Z,11.85
2023-02-04T23:07:12.154Z,11.68
2023-02-04T23:09:39.828Z,12.85
2023-02-04T23:12:13.514Z,11.75
2023-02-04T23:14:42.260Z,12.18
2023-02-04T23:17:10.194Z,12.18
2023-02-04T23:19:37.964Z,11.20
2023-02-04T23:22:06.202Z,10.55
2023-02-04T23:24:34.220Z,9.52
2023-02-04T23:27:02.192Z,9.65
2023-02-04T23:29:35.049Z,9.75
2023-02-04T23:32:04.326Z,9.45
2023-02-04T23:34:32.246Z,9.88
2023-02-04T23:36:59.789Z,10.07
2023-02-04T23:39:27.362Z,9.45
2023-02-04T23:41:55.104Z,9.27
2023-02-04T23:44:22.728Z,8.93
2023-02-04T23:46:51.724Z,8.38
2023-02-04T23:49:19.215Z,8.65
2023-02-04T23:51:47.066Z,8.35
2023-02-04T23:54:14.609Z,9.88
2023-02-04T23:56:42.152Z,9.40
2023-02-04T23:59:09.646Z,9.50
